KMRY/MRY METAR and TAF weather

Enter ICAO airport designator
Station Type Date Time Source
KMRY METAR 2019/12/06 13:54 UTC NOAA

KMRY 061354Z VRB03KT 10SM BKN047 12/11 A3004 RMK AO2 SLP183 T01220106


Station Type Date Time Source
KMRY Decoded METAR 2019/12/06 13:54 UTC NOAA

MONTEREY PENINSULA AIRPORT, CA, United States (KMRY) 36-35N 121-51W 66M
Dec 06, 2019 - 08:54 AM EST / 2019.12.06 1354 UTC
Wind: Variable at 3 MPH (3 KT):0
Visibility: 10 mile(s):0
Sky conditions: mostly cloudy
Temperature: 54.0 F (12.2 C)
Dew Point: 51.1 F (10.6 C)
Relative Humidity: 89%
Pressure (altimeter): 30.04 in. Hg (1017 hPa)
ob: KMRY 061354Z VRB03KT 10SM BKN047 12/11 A3004 RMK AO2 SLP183 T01220106
cycle: 14

Station Type Date Time Source
KMRY TAF 2019/12/06 12:42 UTC NOAA

TAF KMRY 061140Z 0612/0712 VRB03KT P6SM FEW045 OVC200
FM061600 13005KT P6SM FEW030 SCT050 OVC200
FM062100 16011G20KT P6SM SCT035 BKN050 OVC180
FM062300 16015G22KT P6SM BKN035 OVC050
FM070400 16013G22KT P6SM -SHRA OVC025
FM071000 16010KT P6SM -SHRA OVC020

Example: see airport list